Time;durP1;ratioP1;P1;durP2;ratioP2;P2;SDS_P1;SDS_P2;PMS_P1;PMS_P2;Temp;Humidity;BMP_temperature;BMP_pressure;BME280_temperature;BME280_humidity;BME280_pressure;Samples;Min_cycle;Max_cycle;Signal;HPM_P1;HPM_P2
2023/09/30 00:00:15;;;;;;;3.03;1.80;;;13.30;99.90;;;;;;5018631;28;20537;-77
2023/09/30 00:02:40;;;;;;;2.97;2.08;;;13.40;99.90;;;;;;5036370;28;20021;-76
2023/09/30 00:05:08;;;;;;;4.72;2.78;;;13.50;99.90;;;;;;5020149;28;20033;-77
2023/09/30 00:07:34;;;;;;;2.28;1.52;;;13.60;99.90;;;;;;5038923;28;20067;-76
2023/09/30 00:10:00;;;;;;;1.63;1.38;;;13.40;99.90;;;;;;5036604;28;20025;-77
2023/09/30 00:12:26;;;;;;;2.53;1.40;;;13.30;99.90;;;;;;5020770;28;20052;-77
2023/09/30 00:14:53;;;;;;;7.35;2.53;;;13.30;99.90;;;;;;5037785;28;20120;-78
2023/09/30 00:17:19;;;;;;;7.80;1.92;;;13.20;99.90;;;;;;5037634;28;20462;-77
2023/09/30 00:19:44;;;;;;;9.50;2.30;;;13.10;99.90;;;;;;5037372;28;20030;-78
2023/09/30 00:22:10;;;;;;;5.95;2.42;;;13.10;99.90;;;;;;5018075;28;20072;-77
2023/09/30 00:24:36;;;;;;;4.90;2.25;;;13.00;99.90;;;;;;5018673;28;20049;-79
2023/09/30 00:27:01;;;;;;;4.45;1.85;;;13.00;99.90;;;;;;5036020;28;20021;-79
2023/09/30 00:29:27;;;;;;;3.58;1.83;;;13.00;99.90;;;;;;5035296;28;20026;-79
2023/09/30 00:31:53;;;;;;;4.22;2.65;;;13.10;99.90;;;;;;5036028;28;20070;-78
2023/09/30 00:34:18;;;;;;;2.08;1.27;;;13.00;99.90;;;;;;5035515;28;20061;-78
2023/09/30 00:36:44;;;;;;;5.80;1.95;;;12.90;99.90;;;;;;5035474;28;20501;-78
2023/09/30 00:39:10;;;;;;;6.65;2.20;;;12.90;99.90;;;;;;5035302;28;20025;-77
2023/09/30 00:41:38;;;;;;;3.33;1.85;;;13.00;99.90;;;;;;5035432;28;20042;-78
2023/09/30 00:44:04;;;;;;;2.03;1.38;;;12.90;99.90;;;;;;5035432;28;20444;-78
2023/09/30 00:46:35;;;;;;;2.53;1.50;;;12.70;99.90;;;;;;5020518;28;20056;-78
2023/09/30 00:49:02;;;;;;;3.17;2.08;;;12.80;99.90;;;;;;5041080;28;20056;-78
2023/09/30 00:51:29;;;;;;;2.45;1.60;;;12.80;99.90;;;;;;5042552;28;20048;-78
2023/09/30 00:53:58;;;;;;;2.40;1.30;;;12.80;99.90;;;;;;5017059;28;20482;-78
2023/09/30 00:56:27;;;;;;;11.00;1.55;;;12.80;99.90;;;;;;5034921;28;20029;-78
2023/09/30 00:58:53;;;;;;;4.72;2.40;;;12.80;99.90;;;;;;5035069;28;20075;-78
2023/09/30 01:01:20;;;;;;;2.05;1.35;;;12.90;99.90;;;;;;5035246;28;20437;-78
2023/09/30 01:03:46;;;;;;;6.00;2.33;;;12.80;99.90;;;;;;5034878;28;20025;-78
2023/09/30 01:06:12;;;;;;;13.70;3.45;;;12.90;99.90;;;;;;5034910;28;20029;-78
2023/09/30 01:08:38;;;;;;;6.45;1.83;;;12.80;99.90;;;;;;5034931;28;20025;-77
2023/09/30 01:11:04;;;;;;;2.60;1.40;;;12.80;99.90;;;;;;5034620;28;20025;-78
2023/09/30 01:13:36;;;;;;;4.63;2.20;;;12.80;99.90;;;;;;5034296;28;20378;-78
2023/09/30 01:16:12;;;;;;;3.50;2.25;;;12.80;99.90;;;;;;5034296;28;20025;-77
2023/09/30 01:18:42;;;;;;;6.00;2.03;;;12.80;99.90;;;;;;5016541;28;20385;-77
2023/09/30 01:21:08;;;;;;;2.33;1.77;;;12.80;99.90;;;;;;5034471;28;20021;-77
2023/09/30 01:23:38;;;;;;;4.88;2.95;;;12.80;99.90;;;;;;5016881;28;20093;-76
2023/09/30 01:26:15;;;;;;;174.57;85.40;;;12.80;99.90;;;;;;5016752;28;20063;-77
2023/09/30 01:28:41;;;;;;;10.93;5.68;;;12.80;99.90;;;;;;5034510;28;20060;-78
2023/09/30 01:31:06;;;;;;;3.25;1.83;;;12.70;99.90;;;;;;5034446;28;20040;-78
2023/09/30 01:33:33;;;;;;;2.85;1.77;;;12.70;99.90;;;;;;5034192;28;20030;-78
2023/09/30 01:35:59;;;;;;;3.60;1.90;;;12.70;99.90;;;;;;5034571;28;20072;-78
2023/09/30 01:38:25;;;;;;;3.08;2.45;;;12.70;99.90;;;;;;5035175;28;20032;-78
2023/09/30 01:40:51;;;;;;;4.40;1.35;;;12.70;99.90;;;;;;5033825;28;20025;-77
2023/09/30 01:43:17;;;;;;;4.18;1.58;;;12.70;99.90;;;;;;5034548;28;20385;-78
2023/09/30 01:45:44;;;;;;;5.93;2.22;;;12.80;99.90;;;;;;5034422;28;20194;-77
2023/09/30 01:48:10;;;;;;;3.65;2.33;;;12.80;99.90;;;;;;5034657;28;20450;-77
2023/09/30 01:50:40;;;;;;;4.85;1.65;;;12.80;99.90;;;;;;5033997;28;20024;-78
2023/09/30 01:53:06;;;;;;;4.80;1.90;;;12.90;99.90;;;;;;5016077;28;20033;-77
2023/09/30 01:55:33;;;;;;;5.35;1.27;;;13.00;99.90;;;;;;5033737;28;20397;-78
2023/09/30 01:57:59;;;;;;;4.28;1.48;;;13.00;99.90;;;;;;5016368;28;20400;-78
2023/09/30 02:00:25;;;;;;;2.72;1.63;;;13.00;99.90;;;;;;5033978;28;20022;-78
2023/09/30 02:02:50;;;;;;;4.75;1.58;;;13.00;99.90;;;;;;5033850;28;20049;-80
2023/09/30 02:05:16;;;;;;;3.33;1.63;;;13.10;99.90;;;;;;5033841;28;20477;-78
2023/09/30 02:07:43;;;;;;;5.40;2.58;;;13.10;99.90;;;;;;5033839;28;20029;-78
2023/09/30 02:10:09;;;;;;;2.55;1.30;;;13.10;99.90;;;;;;5015841;28;20124;-78
2023/09/30 02:12:36;;;;;;;1.15;1.05;;;13.20;99.90;;;;;;5033561;28;20428;-78
2023/09/30 02:15:03;;;;;;;7.30;2.63;;;13.30;99.90;;;;;;5033507;28;20030;-78
2023/09/30 02:17:29;;;;;;;2.90;1.95;;;13.30;99.90;;;;;;5015831;28;20022;-77
2023/09/30 02:19:55;;;;;;;4.13;1.80;;;13.40;99.90;;;;;;5015523;28;20040;-77
2023/09/30 02:22:20;;;;;;;3.90;2.20;;;13.40;99.90;;;;;;5033613;28;20409;-77
2023/09/30 02:24:46;;;;;;;3.47;2.22;;;13.30;99.90;;;;;;5033796;28;20461;-76
2023/09/30 02:27:12;;;;;;;3.47;1.65;;;13.30;99.90;;;;;;5033452;28;20037;-78
2023/09/30 02:29:37;;;;;;;4.43;1.95;;;13.40;99.90;;;;;;5033261;28;20028;-76
2023/09/30 02:32:03;;;;;;;6.63;1.73;;;13.30;99.90;;;;;;5033140;28;20033;-76
2023/09/30 02:34:30;;;;;;;8.27;2.15;;;13.20;99.90;;;;;;5033425;28;20170;-77
2023/09/30 02:36:56;;;;;;;3.63;1.25;;;13.20;99.90;;;;;;5033304;28;20420;-76
2023/09/30 02:39:21;;;;;;;4.10;2.65;;;13.20;99.90;;;;;;5033771;28;20014;-77
2023/09/30 02:41:50;;;;;;;5.53;2.70;;;13.20;99.90;;;;;;5033403;28;20033;-77
2023/09/30 02:44:15;;;;;;;6.00;2.50;;;13.30;99.90;;;;;;5033271;28;20074;-76
2023/09/30 02:46:41;;;;;;;7.75;2.05;;;13.20;99.90;;;;;;5015702;28;20033;-77
2023/09/30 02:49:07;;;;;;;4.95;1.80;;;13.20;99.90;;;;;;5033322;28;20021;-76
2023/09/30 02:51:33;;;;;;;9.38;2.58;;;13.30;99.90;;;;;;5033570;28;20013;-78
2023/09/30 02:53:59;;;;;;;2.55;1.73;;;13.30;99.90;;;;;;5036970;28;20030;-78
2023/09/30 02:56:26;;;;;;;5.78;1.08;;;13.40;99.90;;;;;;5037163;28;20041;-77
2023/09/30 02:58:52;;;;;;;2.97;1.95;;;13.40;99.90;;;;;;5037189;28;20381;-77
2023/09/30 03:01:17;;;;;;;4.22;1.83;;;13.50;99.90;;;;;;5037460;28;20021;-77
2023/09/30 03:03:47;;;;;;;1.55;1.35;;;13.60;99.90;;;;;;5037700;28;20029;-76
2023/09/30 03:06:12;;;;;;;3.08;2.25;;;13.70;99.90;;;;;;5038562;28;20025;-76
2023/09/30 03:08:38;;;;;;;8.27;2.15;;;13.70;99.90;;;;;;5037334;28;20022;-78
2023/09/30 03:11:04;;;;;;;1.65;1.55;;;13.80;99.90;;;;;;5036677;28;20033;-78
2023/09/30 03:13:30;;;;;;;4.75;2.70;;;13.80;99.90;;;;;;5036575;28;20064;-78
2023/09/30 03:15:57;;;;;;;8.48;2.38;;;13.80;99.90;;;;;;5036470;28;20351;-77
2023/09/30 03:18:26;;;;;;;4.50;2.03;;;13.90;99.90;;;;;;5036447;28;20049;-76
2023/09/30 03:21:00;;;;;;;3.72;1.50;;;13.80;99.90;;;;;;5036389;28;20026;-77
2023/09/30 03:23:30;;;;;;;2.55;1.80;;;13.80;99.90;;;;;;5036784;28;20037;-78
2023/09/30 03:25:59;;;;;;;3.13;1.35;;;14.00;99.90;;;;;;5036554;28;20551;-78
2023/09/30 03:28:26;;;;;;;2.05;1.85;;;14.00;99.90;;;;;;5036482;28;20021;-78
2023/09/30 03:30:52;;;;;;;4.10;1.50;;;14.10;99.90;;;;;;5036370;28;20044;-78
2023/09/30 03:33:17;;;;;;;3.05;1.85;;;14.10;99.90;;;;;;5036491;28;20025;-77
2023/09/30 03:35:44;;;;;;;4.32;2.20;;;14.00;99.90;;;;;;5036294;28;20040;-78
2023/09/30 03:38:10;;;;;;;2.05;1.85;;;14.00;99.90;;;;;;5036629;28;20022;-78
2023/09/30 03:40:38;;;;;;;2.85;1.38;;;14.00;99.90;;;;;;5036316;28;20477;-79
2023/09/30 03:43:05;;;;;;;3.25;1.27;;;14.10;99.90;;;;;;5036245;28;20522;-78
2023/09/30 03:45:32;;;;;;;3.10;1.63;;;14.20;99.90;;;;;;5018322;28;20029;-78
2023/09/30 03:47:58;;;;;;;3.47;1.65;;;14.20;99.90;;;;;;5036275;28;20013;-78
2023/09/30 03:50:24;;;;;;;3.45;1.70;;;14.20;99.90;;;;;;5018482;28;20035;-77
2023/09/30 03:52:50;;;;;;;2.90;1.52;;;14.20;99.90;;;;;;5036062;28;20033;-77
2023/09/30 03:55:17;;;;;;;5.55;1.45;;;14.20;99.90;;;;;;5035895;28;20095;-79
2023/09/30 03:57:47;;;;;;;3.35;1.70;;;14.00;99.90;;;;;;5018446;28;20568;-78
2023/09/30 04:00:18;;;;;;;3.55;2.20;;;14.00;99.90;;;;;;5018045;28;20029;-78
2023/09/30 04:02:48;;;;;;;3.92;2.15;;;13.90;99.90;;;;;;5035945;28;20393;-78
2023/09/30 04:05:14;;;;;;;1.42;1.33;;;13.80;99.90;;;;;;5017486;28;20033;-78
2023/09/30 04:07:42;;;;;;;4.25;1.60;;;13.80;99.90;;;;;;5035658;28;20108;-78
2023/09/30 04:10:08;;;;;;;2.63;2.15;;;13.80;99.90;;;;;;5017887;28;20551;-79
2023/09/30 04:12:34;;;;;;;1.50;1.40;;;14.00;99.90;;;;;;5017936;28;20026;-78
2023/09/30 04:15:00;;;;;;;2.00;1.42;;;13.90;99.90;;;;;;5017775;28;20044;-77
2023/09/30 04:17:27;;;;;;;1.48;1.33;;;13.90;99.90;;;;;;5038178;28;20029;-77
2023/09/30 04:19:53;;;;;;;3.28;1.92;;;14.00;99.90;;;;;;5019559;28;20221;-77
2023/09/30 04:22:19;;;;;;;3.95;1.98;;;14.00;99.90;;;;;;5019244;28;20083;-78
2023/09/30 04:24:45;;;;;;;2.15;1.58;;;14.00;99.90;;;;;;5017678;28;20026;-79
2023/09/30 04:27:11;;;;;;;6.93;2.33;;;14.00;99.90;;;;;;5021486;28;20091;-78
2023/09/30 04:29:37;;;;;;;5.35;1.35;;;14.10;99.90;;;;;;5027715;28;20420;-77
2023/09/30 04:32:04;;;;;;;3.72;1.60;;;14.00;99.90;;;;;;5041108;28;20029;-77
2023/09/30 04:34:30;;;;;;;3.72;1.33;;;13.90;99.90;;;;;;5024752;28;20488;-79
2023/09/30 04:36:56;;;;;;;4.15;1.83;;;13.90;99.90;;;;;;5024133;28;20074;-78
2023/09/30 04:39:22;;;;;;;2.00;1.38;;;13.90;99.90;;;;;;5027396;28;20092;-77
2023/09/30 04:41:48;;;;;;;4.32;1.33;;;13.90;99.90;;;;;;5038158;28;20026;-77
2023/09/30 04:44:14;;;;;;;3.72;1.33;;;13.90;99.90;;;;;;5020791;28;20083;-77
2023/09/30 04:46:45;;;;;;;2.15;1.00;;;13.90;99.90;;;;;;5041819;28;20017;-77
2023/09/30 04:49:13;;;;;;;4.72;1.88;;;14.10;99.90;;;;;;5020284;28;20037;-77
2023/09/30 04:51:39;;;;;;;3.47;1.35;;;14.10;99.90;;;;;;5018466;28;20025;-76
2023/09/30 04:54:08;;;;;;;1.90;1.25;;;14.00;99.90;;;;;;5020186;28;20029;-77
2023/09/30 04:56:34;;;;;;;1.55;1.42;;;14.00;99.90;;;;;;5024211;28;20033;-78
2023/09/30 04:59:01;;;;;;;2.95;1.60;;;13.90;99.90;;;;;;5022614;28;20028;-76
2023/09/30 05:01:28;;;;;;;2.70;1.88;;;14.00;99.90;;;;;;5035898;28;20079;-76
2023/09/30 05:03:54;;;;;;;3.13;2.10;;;13.90;99.90;;;;;;5034675;28;20056;-76
2023/09/30 05:06:21;;;;;;;5.10;1.80;;;13.90;99.90;;;;;;5043242;28;20119;-78
2023/09/30 05:08:50;;;;;;;3.05;1.88;;;13.90;99.90;;;;;;5025788;28;20208;-77
2023/09/30 05:11:16;;;;;;;2.92;1.02;;;13.90;99.90;;;;;;5040913;28;20033;-76
2023/09/30 05:13:42;;;;;;;3.90;2.38;;;13.90;99.90;;;;;;5019654;28;20086;-77
2023/09/30 05:16:07;;;;;;;6.32;2.03;;;13.80;99.90;;;;;;5034282;28;20045;-77
2023/09/30 05:18:33;;;;;;;3.42;1.23;;;13.80;99.90;;;;;;5034472;28;20021;-77
2023/09/30 05:21:00;;;;;;;5.13;1.70;;;13.90;99.90;;;;;;5034161;28;20036;-78
2023/09/30 05:23:25;;;;;;;5.47;1.70;;;13.90;99.90;;;;;;5034114;28;20486;-78
2023/09/30 05:25:51;;;;;;;4.20;2.15;;;13.90;99.90;;;;;;5034139;28;20033;-78
2023/09/30 05:28:17;;;;;;;5.85;1.27;;;13.90;99.90;;;;;;5034154;28;20079;-77
2023/09/30 05:30:43;;;;;;;3.80;1.88;;;13.90;99.90;;;;;;5034267;28;20029;-77
2023/09/30 05:33:14;;;;;;;3.88;2.17;;;13.90;99.90;;;;;;5034154;28;20025;-77
2023/09/30 05:35:43;;;;;;;6.30;1.08;;;14.00;99.90;;;;;;5034101;28;20029;-77
2023/09/30 05:38:08;;;;;;;7.32;1.75;;;14.10;99.90;;;;;;5034020;28;20382;-78
2023/09/30 05:40:34;;;;;;;3.13;2.05;;;14.10;99.90;;;;;;5033919;28;20036;-78
2023/09/30 05:43:00;;;;;;;3.60;1.40;;;14.00;99.90;;;;;;5034236;28;20113;-78
2023/09/30 05:45:27;;;;;;;4.63;1.95;;;14.10;99.90;;;;;;5034058;28;20041;-77
2023/09/30 05:47:58;;;;;;;4.65;2.13;;;14.10;99.90;;;;;;5016461;28;20080;-77
2023/09/30 05:50:26;;;;;;;5.00;1.65;;;14.10;99.90;;;;;;5033774;28;20029;-76
2023/09/30 05:52:53;;;;;;;3.95;1.45;;;14.00;99.90;;;;;;5033665;28;20036;-77
2023/09/30 05:55:20;;;;;;;2.80;1.30;;;14.10;99.90;;;;;;5033473;28;20504;-77
2023/09/30 05:57:49;;;;;;;3.35;1.42;;;14.00;99.90;;;;;;5033329;28;20021;-77
2023/09/30 06:00:20;;;;;;;2.53;1.58;;;14.00;99.90;;;;;;5033395;28;20432;-77
2023/09/30 06:02:47;;;;;;;2.75;1.88;;;14.10;99.90;;;;;;5034082;28;20091;-79
2023/09/30 06:05:15;;;;;;;4.47;1.58;;;14.10;99.90;;;;;;5036007;28;20028;-76
2023/09/30 06:07:43;;;;;;;3.92;1.63;;;14.30;99.90;;;;;;5035987;28;20500;-77
2023/09/30 06:10:09;;;;;;;8.60;2.33;;;14.30;99.90;;;;;;5033411;28;20021;-77
2023/09/30 06:12:35;;;;;;;5.70;2.00;;;14.40;99.90;;;;;;5032789;28;20018;-77
2023/09/30 06:15:02;;;;;;;2.88;1.50;;;14.50;99.90;;;;;;5032994;28;20047;-77
2023/09/30 06:17:28;;;;;;;9.73;2.58;;;14.50;99.90;;;;;;5015238;28;20112;-78
2023/09/30 06:19:54;;;;;;;4.22;1.85;;;14.60;99.90;;;;;;5033143;28;20199;-78
2023/09/30 06:22:21;;;;;;;6.15;2.03;;;14.80;99.90;;;;;;5032804;28;20081;-77
2023/09/30 06:24:48;;;;;;;1.70;1.23;;;14.90;99.90;;;;;;5015180;28;20025;-78
2023/09/30 06:27:13;;;;;;;2.50;1.77;;;15.10;99.90;;;;;;5032623;28;20017;-78
2023/09/30 06:29:40;;;;;;;3.70;1.38;;;15.20;99.90;;;;;;5014960;28;20474;-79
2023/09/30 06:32:07;;;;;;;5.50;2.10;;;15.40;99.90;;;;;;5032786;28;20498;-78
2023/09/30 06:34:34;;;;;;;3.50;1.75;;;15.60;99.90;;;;;;5014982;28;20039;-78
2023/09/30 06:37:00;;;;;;;3.42;1.52;;;15.70;99.90;;;;;;5015321;28;20025;-80
2023/09/30 06:39:25;;;;;;;3.78;2.03;;;15.90;99.90;;;;;;5032567;28;20025;-80
2023/09/30 06:41:51;;;;;;;2.00;1.50;;;16.00;99.90;;;;;;5032850;28;20026;-78
2023/09/30 06:44:17;;;;;;;1.33;1.23;;;16.10;99.90;;;;;;5032411;28;20496;-79
2023/09/30 06:46:43;;;;;;;4.57;1.88;;;16.20;99.90;;;;;;5032623;28;20033;-80
2023/09/30 06:49:09;;;;;;;2.10;1.27;;;16.30;99.90;;;;;;5032542;28;20021;-79
2023/09/30 06:51:34;;;;;;;8.93;1.83;;;16.40;99.90;;;;;;5032529;28;20022;-79
2023/09/30 06:54:00;;;;;;;2.15;1.52;;;16.40;99.90;;;;;;5032669;28;20032;-78
2023/09/30 06:56:26;;;;;;;4.72;1.50;;;16.30;99.90;;;;;;5014942;28;20042;-78
2023/09/30 06:58:52;;;;;;;1.33;0.98;;;16.30;99.90;;;;;;5023111;28;20021;-78
2023/09/30 07:01:18;;;;;;;3.35;1.98;;;16.50;99.90;;;;;;5042661;28;20017;-78
2023/09/30 07:03:43;;;;;;;2.38;1.48;;;16.70;99.90;;;;;;5042320;28;20129;-78
2023/09/30 07:06:09;;;;;;;1.95;0.80;;;17.00;99.90;;;;;;5025198;28;20044;-78
2023/09/30 07:08:35;;;;;;;1.52;0.90;;;17.20;99.90;;;;;;5042894;28;20058;-78
2023/09/30 07:11:01;;;;;;;4.00;2.15;;;17.30;99.90;;;;;;5042888;28;20084;-78
2023/09/30 07:13:27;;;;;;;3.47;1.77;;;17.40;99.90;;;;;;5043106;28;20013;-78
2023/09/30 07:15:53;;;;;;;7.90;1.65;;;17.30;99.90;;;;;;5024485;28;20112;-78
2023/09/30 07:18:18;;;;;;;2.92;1.70;;;17.30;99.90;;;;;;5025299;28;20025;-78
2023/09/30 07:20:44;;;;;;;3.67;2.30;;;17.30;99.90;;;;;;5025088;28;20313;-78
2023/09/30 07:23:10;;;;;;;5.85;1.67;;;17.40;99.90;;;;;;5025068;28;20050;-79
2023/09/30 07:25:35;;;;;;;4.47;2.00;;;17.40;99.90;;;;;;5018338;28;20476;-80
2023/09/30 07:28:01;;;;;;;2.78;1.63;;;17.50;99.90;;;;;;5023139;28;20032;-79
2023/09/30 07:30:27;;;;;;;3.22;1.52;;;17.70;99.90;;;;;;5035443;28;20025;-78
2023/09/30 07:32:53;;;;;;;2.55;1.60;;;17.90;99.90;;;;;;5032224;28;20120;-78
2023/09/30 07:35:19;;;;;;;4.28;1.42;;;18.10;99.90;;;;;;5032617;28;20033;-78
2023/09/30 07:37:45;;;;;;;3.22;1.85;;;18.10;99.90;;;;;;5014891;28;20048;-77
2023/09/30 07:40:11;;;;;;;7.72;1.90;;;18.20;99.90;;;;;;5035303;28;20029;-77
2023/09/30 07:42:37;;;;;;;2.45;1.73;;;18.50;99.90;;;;;;5035570;28;20037;-77
2023/09/30 07:45:04;;;;;;;4.20;1.65;;;18.50;99.90;;;;;;5043226;28;20044;-77
2023/09/30 07:47:31;;;;;;;2.80;1.60;;;18.40;99.90;;;;;;5044376;28;20017;-77
2023/09/30 07:49:56;;;;;;;3.28;1.55;;;18.40;99.90;;;;;;5046137;28;20059;-77
2023/09/30 07:52:22;;;;;;;6.68;2.33;;;18.60;99.90;;;;;;5028387;28;20252;-76
2023/09/30 07:54:48;;;;;;;4.20;1.50;;;18.70;99.90;;;;;;5028471;28;20351;-76
2023/09/30 07:57:13;;;;;;;3.50;2.20;;;18.70;99.90;;;;;;5045994;28;20339;-77
2023/09/30 07:59:39;;;;;;;7.15;1.83;;;18.80;99.90;;;;;;5045829;28;20317;-77
2023/09/30 08:02:06;;;;;;;6.28;2.05;;;18.90;99.90;;;;;;5045619;28;20081;-77
2023/09/30 08:04:32;;;;;;;8.45;2.15;;;19.10;99.90;;;;;;5046096;28;20009;-77
2023/09/30 08:06:58;;;;;;;2.15;1.95;;;18.80;99.90;;;;;;5028558;28;20048;-77
2023/09/30 08:09:24;;;;;;;3.92;1.63;;;18.90;99.90;;;;;;5046077;28;20025;-80
2023/09/30 08:11:50;;;;;;;7.72;2.45;;;19.00;99.90;;;;;;5043866;28;20036;-77
2023/09/30 08:14:16;;;;;;;5.90;2.35;;;19.20;99.90;;;;;;5021216;28;20076;-76
2023/09/30 08:16:42;;;;;;;2.72;1.90;;;18.70;99.90;;;;;;5023803;28;20482;-77
2023/09/30 08:19:09;;;;;;;6.45;2.13;;;18.80;99.90;;;;;;5038022;28;20021;-78
2023/09/30 08:21:35;;;;;;;7.32;1.70;;;18.70;99.90;;;;;;5036030;28;20118;-76
2023/09/30 08:24:02;;;;;;;3.15;1.35;;;18.70;99.90;;;;;;5038066;28;20052;-77
2023/09/30 08:26:27;;;;;;;3.58;2.05;;;18.80;99.90;;;;;;5025782;28;20029;-75
2023/09/30 08:28:53;;;;;;;8.90;2.20;;;18.80;99.90;;;;;;5019478;28;20071;-74
2023/09/30 08:31:19;;;;;;;8.52;4.57;;;18.80;99.90;;;;;;5019708;28;20026;-77
2023/09/30 08:33:45;;;;;;;16.95;5.93;;;18.70;99.90;;;;;;5023032;28;20018;-80
2023/09/30 08:36:11;;;;;;;9.77;3.08;;;18.60;99.90;;;;;;5023521;28;20083;-78
2023/09/30 08:38:38;;;;;;;7.10;2.42;;;18.90;99.90;;;;;;5044450;28;20021;-80
2023/09/30 08:41:05;;;;;;;4.50;2.30;;;18.80;99.90;;;;;;5026721;28;20317;-78
2023/09/30 08:43:31;;;;;;;8.27;2.58;;;19.00;99.90;;;;;;5027308;28;20018;-79
2023/09/30 08:45:59;;;;;;;3.75;2.05;;;19.10;99.90;;;;;;5027913;28;20372;-78
2023/09/30 08:48:27;;;;;;;5.63;2.65;;;18.90;99.90;;;;;;5045015;28;20209;-78
2023/09/30 08:50:54;;;;;;;3.55;1.77;;;19.00;99.90;;;;;;5028297;28;20017;-79
2023/09/30 08:53:21;;;;;;;6.05;2.20;;;18.90;99.90;;;;;;5029075;28;20018;-78
2023/09/30 08:55:48;;;;;;;6.55;2.35;;;18.90;99.90;;;;;;5029269;28;20060;-78
2023/09/30 08:58:14;;;;;;;4.68;2.72;;;19.10;99.90;;;;;;5046896;28;20024;-77
2023/09/30 09:00:40;;;;;;;4.20;2.08;;;18.90;99.90;;;;;;5025523;28;20233;-77
2023/09/30 09:03:07;;;;;;;4.30;2.33;;;18.80;99.90;;;;;;5047929;28;20018;-77
2023/09/30 09:05:33;;;;;;;8.18;2.70;;;18.70;99.90;;;;;;5025940;28;20025;-78
2023/09/30 09:07:59;;;;;;;3.75;2.10;;;18.80;99.90;;;;;;5037367;28;20022;-78
2023/09/30 09:10:24;;;;;;;3.97;1.90;;;18.80;99.90;;;;;;5035311;28;20036;-76
2023/09/30 09:12:58;;;;;;;5.72;1.92;;;18.90;99.90;;;;;;5036660;28;20021;-76
2023/09/30 09:15:28;;;;;;;5.40;2.45;;;18.70;99.90;;;;;;5043154;28;20048;-76
2023/09/30 09:17:55;;;;;;;3.67;1.48;;;18.60;99.90;;;;;;5043608;28;20048;-76
2023/09/30 09:20:22;;;;;;;4.50;1.70;;;18.70;99.90;;;;;;5044058;28;20034;-76
2023/09/30 09:22:52;;;;;;;4.97;2.42;;;18.70;99.90;;;;;;5043423;28;20049;-76
2023/09/30 09:25:18;;;;;;;6.45;2.03;;;18.60;99.90;;;;;;5043205;28;20036;-76
2023/09/30 09:27:44;;;;;;;7.40;2.10;;;18.60;99.90;;;;;;5043480;28;20212;-76
2023/09/30 09:30:23;;;;;;;6.53;2.33;;;18.70;99.90;;;;;;5043599;28;20017;-76
2023/09/30 09:32:58;;;;;;;5.18;2.65;;;18.50;99.90;;;;;;5043402;28;20021;-76
2023/09/30 09:35:30;;;;;;;4.90;2.22;;;18.50;99.90;;;;;;5043379;28;20504;-76
2023/09/30 09:38:00;;;;;;;4.82;2.55;;;18.50;99.90;;;;;;5025582;28;20142;-76
2023/09/30 09:40:28;;;;;;;4.72;2.55;;;18.60;99.90;;;;;;5043321;28;20147;-78
2023/09/30 09:42:55;;;;;;;4.13;2.20;;;18.70;99.90;;;;;;5044033;28;20018;-77
2023/09/30 09:45:25;;;;;;;4.15;2.38;;;18.70;99.90;;;;;;5043639;28;20052;-79
2023/09/30 09:47:52;;;;;;;6.47;1.95;;;18.60;99.90;;;;;;5024908;28;20018;-78
2023/09/30 09:50:20;;;;;;;8.48;2.20;;;18.50;99.90;;;;;;5026289;28;20028;-78
2023/09/30 09:52:50;;;;;;;6.70;2.58;;;18.70;99.90;;;;;;5043075;28;20343;-78
2023/09/30 09:55:21;;;;;;;7.53;3.03;;;18.90;99.90;;;;;;5042514;28;20268;-78
2023/09/30 09:57:48;;;;;;;3.95;1.92;;;18.90;99.90;;;;;;5024935;28;20033;-77
2023/09/30 10:00:25;;;;;;;4.95;2.03;;;19.10;99.90;;;;;;5043094;28;20281;-78
2023/09/30 10:02:52;;;;;;;3.92;2.25;;;19.10;99.90;;;;;;5042585;28;20021;-77
2023/09/30 10:05:19;;;;;;;5.25;1.73;;;18.90;99.90;;;;;;5025207;28;20075;-76
2023/09/30 10:07:47;;;;;;;4.50;2.15;;;19.00;99.90;;;;;;5025276;28;20096;-76
2023/09/30 10:10:16;;;;;;;5.47;2.45;;;19.10;99.90;;;;;;5024679;28;20013;-76
2023/09/30 10:12:42;;;;;;;5.22;2.15;;;19.30;99.90;;;;;;5024606;28;20025;-77
2023/09/30 10:15:28;;;;;;;4.65;1.80;;;19.50;99.90;;;;;;5042158;28;20063;-77
2023/09/30 10:18:04;;;;;;;4.55;2.38;;;19.40;99.90;;;;;;5014161;28;20036;-76
2023/09/30 10:20:44;;;;;;;4.25;1.85;;;19.50;99.90;;;;;;5024381;28;20670;-78
2023/09/30 10:23:33;;;;;;;6.35;1.98;;;19.90;99.90;;;;;;5024581;28;20061;-76
2023/09/30 10:26:14;;;;;;;4.18;1.92;;;20.30;99.90;;;;;;5024565;28;20025;-77
2023/09/30 10:28:49;;;;;;;3.45;2.17;;;20.90;99.90;;;;;;5024615;28;20029;-77
2023/09/30 10:31:21;;;;;;;6.43;2.00;;;21.30;99.90;;;;;;5042417;28;20018;-77
2023/09/30 10:34:01;;;;;;;5.65;2.38;;;21.40;99.90;;;;;;5042903;28;20040;-77
2023/09/30 10:36:34;;;;;;;7.18;2.08;;;21.50;99.90;;;;;;5042720;28;20124;-77
2023/09/30 10:39:00;;;;;;;7.07;2.58;;;21.90;99.90;;;;;;5024964;28;20439;-77
2023/09/30 10:41:41;;;;;;;5.30;2.25;;;22.20;99.90;;;;;;5042923;28;20022;-77
2023/09/30 10:44:25;;;;;;;5.50;2.15;;;22.60;99.90;;;;;;5025524;28;20041;-76
2023/09/30 10:46:55;;;;;;;6.80;1.67;;;22.90;99.90;;;;;;5043316;28;20063;-76
2023/09/30 10:49:24;;;;;;;4.65;2.15;;;22.50;99.90;;;;;;5043041;28;20028;-76
2023/09/30 10:52:00;;;;;;;7.50;1.98;;;22.20;99.90;;;;;;5042350;28;20025;-77
2023/09/30 10:54:30;;;;;;;4.32;2.67;;;22.10;99.90;;;;;;5042680;28;20355;-76
2023/09/30 10:57:01;;;;;;;8.07;2.15;;;21.60;99.90;;;;;;5042375;28;20037;-77
2023/09/30 10:59:32;;;;;;;8.45;2.72;;;21.50;99.90;;;;;;5041723;28;20076;-76
2023/09/30 11:01:58;;;;;;;5.90;2.35;;;21.30;99.90;;;;;;5042425;28;20032;-77
2023/09/30 11:04:24;;;;;;;4.88;2.10;;;21.40;99.90;;;;;;5024047;28;20021;-76
2023/09/30 11:06:53;;;;;;;4.47;2.20;;;21.40;99.90;;;;;;5042332;28;20030;-76
2023/09/30 11:09:21;;;;;;;9.10;2.60;;;21.40;99.90;;;;;;5024864;28;20044;-76
2023/09/30 11:11:49;;;;;;;8.35;3.15;;;21.70;99.90;;;;;;5041944;28;20049;-77
2023/09/30 11:14:21;;;;;;;4.15;1.85;;;21.60;99.90;;;;;;5027319;28;20032;-77
2023/09/30 11:16:48;;;;;;;4.65;2.40;;;21.70;99.90;;;;;;5028327;28;20040;-77
2023/09/30 11:19:18;;;;;;;7.95;2.58;;;22.00;99.90;;;;;;5027929;28;20054;-77
2023/09/30 11:21:44;;;;;;;6.18;2.25;;;22.10;99.90;;;;;;5027711;28;20050;-77
2023/09/30 11:24:10;;;;;;;6.88;2.95;;;22.60;99.90;;;;;;5028003;28;20026;-75
2023/09/30 11:26:36;;;;;;;5.72;2.55;;;22.70;99.90;;;;;;5045547;28;20029;-74
2023/09/30 11:29:13;;;;;;;3.15;2.42;;;22.40;99.90;;;;;;5045874;28;20017;-74
2023/09/30 11:31:47;;;;;;;6.35;2.60;;;22.70;99.90;;;;;;5028297;28;20018;-75
2023/09/30 11:34:14;;;;;;;7.93;2.10;;;23.30;99.90;;;;;;5046163;28;20022;-71
2023/09/30 11:36:48;;;;;;;6.57;2.85;;;23.80;99.90;;;;;;5045852;28;20038;-71
2023/09/30 11:39:25;;;;;;;4.07;2.28;;;23.20;99.30;;;;;;5037635;28;20021;-73
2023/09/30 11:41:52;;;;;;;5.45;2.60;;;22.60;99.90;;;;;;5036070;28;20366;-73
2023/09/30 11:44:18;;;;;;;9.13;2.78;;;21.90;99.90;;;;;;5035940;28;20017;-76
2023/09/30 11:46:55;;;;;;;8.02;3.58;;;21.90;99.90;;;;;;5035474;28;20021;-74
2023/09/30 11:49:32;;;;;;;9.10;4.57;;;22.00;99.90;;;;;;5035731;28;20033;-73
2023/09/30 11:51:59;;;;;;;7.10;2.70;;;21.80;99.90;;;;;;5017741;28;20128;-73
2023/09/30 11:54:33;;;;;;;6.88;2.47;;;21.80;99.90;;;;;;5035500;28;20022;-77
2023/09/30 11:57:00;;;;;;;7.80;2.20;;;21.60;99.90;;;;;;5017455;28;20507;-78
2023/09/30 11:59:26;;;;;;;5.53;2.63;;;21.90;99.40;;;;;;5035525;28;20022;-77
2023/09/30 12:01:51;;;;;;;10.18;3.55;;;22.50;99.90;;;;;;5035491;28;20520;-77
2023/09/30 12:04:21;;;;;;;6.15;2.38;;;22.70;97.70;;;;;;5018041;28;20096;-78
2023/09/30 12:06:48;;;;;;;6.90;1.92;;;22.60;99.30;;;;;;5019402;28;20514;-78
2023/09/30 12:09:15;;;;;;;4.93;2.20;;;22.50;98.80;;;;;;5017731;28;20227;-78
2023/09/30 12:11:45;;;;;;;7.32;2.65;;;22.60;99.40;;;;;;5017445;28;20026;-78
2023/09/30 12:14:12;;;;;;;5.50;2.45;;;22.50;99.60;;;;;;5017374;28;20108;-77
2023/09/30 12:16:38;;;;;;;8.40;2.15;;;22.60;99.10;;;;;;5034981;28;20042;-79
2023/09/30 12:19:05;;;;;;;7.32;3.15;;;22.50;98.30;;;;;;5017114;28;20056;-78
2023/09/30 12:21:31;;;;;;;8.15;2.88;;;22.20;98.10;;;;;;5034981;28;20140;-78
2023/09/30 12:23:58;;;;;;;4.22;2.25;;;22.20;97.40;;;;;;5034768;28;20028;-78
2023/09/30 12:26:24;;;;;;;4.10;2.05;;;22.20;97.40;;;;;;5016945;28;20025;-77
2023/09/30 12:28:50;;;;;;;7.78;3.17;;;22.90;96.40;;;;;;5017330;28;20112;-78
2023/09/30 12:31:16;;;;;;;6.45;2.45;;;23.90;94.70;;;;;;5034912;28;20068;-77
2023/09/30 12:33:42;;;;;;;6.82;3.75;;;24.00;92.70;;;;;;5016894;28;20500;-78
2023/09/30 12:36:07;;;;;;;5.93;2.53;;;23.80;92.30;;;;;;5034732;28;20037;-78
2023/09/30 12:38:33;;;;;;;6.63;3.53;;;23.70;92.60;;;;;;5034849;28;20370;-78
2023/09/30 12:41:00;;;;;;;7.32;2.92;;;24.00;93.30;;;;;;5016806;28;20033;-78
2023/09/30 12:43:26;;;;;;;8.43;3.30;;;24.70;92.20;;;;;;5034904;28;20021;-77
2023/09/30 12:45:51;;;;;;;7.78;3.15;;;24.50;91.30;;;;;;5034464;28;20028;-77